sensor_id;sensor_type;location;lat;lon;timestamp;P1;durP1;ratioP1;P2;durP2;ratioP2
72369;SDS011;60343;-32.030;115.880;2023-05-10T00:00:34;16.48;;;1.70;;
72369;SDS011;60343;-32.030;115.880;2023-05-10T00:03:08;15.48;;;1.35;;
72369;SDS011;60343;-32.030;115.880;2023-05-10T00:05:43;13.27;;;1.30;;
72369;SDS011;60343;-32.030;115.880;2023-05-10T00:08:17;18.42;;;1.67;;
72369;SDS011;60343;-32.030;115.880;2023-05-10T00:10:57;13.98;;;1.42;;
72369;SDS011;60343;-32.030;115.880;2023-05-10T00:13:32;14.77;;;1.10;;
72369;SDS011;60343;-32.030;115.880;2023-05-10T00:16:07;12.60;;;1.58;;
72369;SDS011;60343;-32.030;115.880;2023-05-10T00:18:41;14.75;;;1.33;;
72369;SDS011;60343;-32.030;115.880;2023-05-10T00:21:16;11.88;;;1.13;;
72369;SDS011;60343;-32.030;115.880;2023-05-10T00:23:50;10.75;;;1.10;;
72369;SDS011;60343;-32.030;115.880;2023-05-10T00:26:30;11.23;;;0.88;;
72369;SDS011;60343;-32.030;115.880;2023-05-10T00:29:05;13.23;;;1.17;;
72369;SDS011;60343;-32.030;115.880;2023-05-10T00:31:39;14.52;;;1.33;;
72369;SDS011;60343;-32.030;115.880;2023-05-10T00:34:14;12.50;;;1.13;;
72369;SDS011;60343;-32.030;115.880;2023-05-10T00:36:48;16.88;;;1.63;;
72369;SDS011;60343;-32.030;115.880;2023-05-10T00:39:23;13.10;;;1.58;;
72369;SDS011;60343;-32.030;115.880;2023-05-10T00:42:04;17.40;;;1.45;;
72369;SDS011;60343;-32.030;115.880;2023-05-10T00:44:38;16.27;;;1.50;;
72369;SDS011;60343;-32.030;115.880;2023-05-10T00:47:13;13.75;;;1.40;;
72369;SDS011;60343;-32.030;115.880;2023-05-10T00:49:50;11.40;;;1.00;;
72369;SDS011;60343;-32.030;115.880;2023-05-10T00:52:26;10.85;;;1.60;;
72369;SDS011;60343;-32.030;115.880;2023-05-10T00:55:01;10.35;;;1.00;;
72369;SDS011;60343;-32.030;115.880;2023-05-10T00:57:42;11.63;;;1.58;;
72369;SDS011;60343;-32.030;115.880;2023-05-10T01:00:17;12.35;;;1.02;;
72369;SDS011;60343;-32.030;115.880;2023-05-10T01:02:52;12.15;;;1.10;;
72369;SDS011;60343;-32.030;115.880;2023-05-10T01:05:27;11.82;;;0.90;;
72369;SDS011;60343;-32.030;115.880;2023-05-10T01:08:02;11.60;;;1.67;;
72369;SDS011;60343;-32.030;115.880;2023-05-10T01:10:36;7.28;;;1.00;;
72369;SDS011;60343;-32.030;115.880;2023-05-10T01:13:17;15.05;;;1.20;;
72369;SDS011;60343;-32.030;115.880;2023-05-10T01:16:04;12.98;;;1.30;;
72369;SDS011;60343;-32.030;115.880;2023-05-10T01:18:40;14.43;;;1.20;;
72369;SDS011;60343;-32.030;115.880;2023-05-10T01:21:17;16.02;;;1.30;;
72369;SDS011;60343;-32.030;115.880;2023-05-10T01:24:04;14.77;;;1.40;;
72369;SDS011;60343;-32.030;115.880;2023-05-10T01:30:13;13.50;;;1.45;;
72369;SDS011;60343;-32.030;115.880;2023-05-10T01:33:15;16.58;;;1.30;;
72369;SDS011;60343;-32.030;115.880;2023-05-10T01:38:29;16.05;;;1.63;;
72369;SDS011;60343;-32.030;115.880;2023-05-10T01:41:14;16.27;;;1.70;;
72369;SDS011;60343;-32.030;115.880;2023-05-10T01:43:53;12.95;;;1.50;;
72369;SDS011;60343;-32.030;115.880;2023-05-10T01:46:33;14.68;;;1.90;;
72369;SDS011;60343;-32.030;115.880;2023-05-10T01:49:16;11.80;;;1.67;;
72369;SDS011;60343;-32.030;115.880;2023-05-10T01:51:58;10.43;;;1.20;;
72369;SDS011;60343;-32.030;115.880;2023-05-10T01:54:38;16.63;;;1.60;;
72369;SDS011;60343;-32.030;115.880;2023-05-10T01:57:17;21.23;;;2.17;;
72369;SDS011;60343;-32.030;115.880;2023-05-10T01:59:55;20.95;;;1.80;;
72369;SDS011;60343;-32.030;115.880;2023-05-10T02:02:33;16.38;;;1.55;;
72369;SDS011;60343;-32.030;115.880;2023-05-10T02:05:16;17.88;;;1.85;;
72369;SDS011;60343;-32.030;115.880;2023-05-10T02:07:53;18.02;;;1.42;;
72369;SDS011;60343;-32.030;115.880;2023-05-10T02:10:28;22.48;;;2.00;;
72369;SDS011;60343;-32.030;115.880;2023-05-10T02:13:04;16.55;;;2.10;;
72369;SDS011;60343;-32.030;115.880;2023-05-10T02:15:43;14.23;;;1.83;;
72369;SDS011;60343;-32.030;115.880;2023-05-10T02:18:21;15.88;;;1.88;;
72369;SDS011;60343;-32.030;115.880;2023-05-10T02:21:03;17.23;;;1.58;;
72369;SDS011;60343;-32.030;115.880;2023-05-10T02:23:37;13.77;;;1.38;;
72369;SDS011;60343;-32.030;115.880;2023-05-10T02:26:13;19.00;;;1.75;;
72369;SDS011;60343;-32.030;115.880;2023-05-10T02:28:49;17.13;;;1.58;;
72369;SDS011;60343;-32.030;115.880;2023-05-10T02:31:25;18.50;;;1.70;;
72369;SDS011;60343;-32.030;115.880;2023-05-10T02:34:00;16.65;;;1.55;;
72369;SDS011;60343;-32.030;115.880;2023-05-10T02:36:41;15.38;;;1.83;;
72369;SDS011;60343;-32.030;115.880;2023-05-10T02:39:16;19.95;;;2.35;;
72369;SDS011;60343;-32.030;115.880;2023-05-10T02:41:52;17.50;;;1.73;;
72369;SDS011;60343;-32.030;115.880;2023-05-10T02:44:28;15.68;;;1.55;;
72369;SDS011;60343;-32.030;115.880;2023-05-10T02:47:04;11.98;;;1.52;;
72369;SDS011;60343;-32.030;115.880;2023-05-10T02:49:39;14.27;;;1.33;;
72369;SDS011;60343;-32.030;115.880;2023-05-10T02:52:21;12.07;;;1.20;;
72369;SDS011;60343;-32.030;115.880;2023-05-10T02:55:01;11.80;;;0.93;;
72369;SDS011;60343;-32.030;115.880;2023-05-10T02:57:38;15.25;;;1.40;;
72369;SDS011;60343;-32.030;115.880;2023-05-10T03:00:16;11.88;;;1.30;;
72369;SDS011;60343;-32.030;115.880;2023-05-10T03:02:51;10.35;;;1.15;;
72369;SDS011;60343;-32.030;115.880;2023-05-10T03:05:25;14.52;;;1.38;;
72369;SDS011;60343;-32.030;115.880;2023-05-10T03:08:05;14.82;;;1.60;;
72369;SDS011;60343;-32.030;115.880;2023-05-10T03:10:41;14.30;;;1.40;;
72369;SDS011;60343;-32.030;115.880;2023-05-10T03:13:29;12.85;;;1.52;;
72369;SDS011;60343;-32.030;115.880;2023-05-10T03:16:10;18.15;;;1.65;;
72369;SDS011;60343;-32.030;115.880;2023-05-10T03:18:50;15.32;;;2.00;;
72369;SDS011;60343;-32.030;115.880;2023-05-10T03:21:34;11.55;;;1.45;;
72369;SDS011;60343;-32.030;115.880;2023-05-10T03:24:20;15.10;;;1.67;;
72369;SDS011;60343;-32.030;115.880;2023-05-10T03:26:56;18.90;;;2.08;;
72369;SDS011;60343;-32.030;115.880;2023-05-10T03:29:34;12.05;;;1.27;;
72369;SDS011;60343;-32.030;115.880;2023-05-10T03:32:09;13.32;;;1.50;;
72369;SDS011;60343;-32.030;115.880;2023-05-10T03:34:43;16.73;;;1.52;;
72369;SDS011;60343;-32.030;115.880;2023-05-10T03:37:18;11.18;;;1.52;;
72369;SDS011;60343;-32.030;115.880;2023-05-10T03:39:58;14.00;;;1.58;;
72369;SDS011;60343;-32.030;115.880;2023-05-10T03:42:33;11.23;;;1.60;;
72369;SDS011;60343;-32.030;115.880;2023-05-10T03:45:08;11.93;;;1.40;;
72369;SDS011;60343;-32.030;115.880;2023-05-10T03:47:43;14.30;;;1.73;;
72369;SDS011;60343;-32.030;115.880;2023-05-10T03:50:17;14.35;;;2.13;;
72369;SDS011;60343;-32.030;115.880;2023-05-10T03:52:52;12.70;;;1.50;;
72369;SDS011;60343;-32.030;115.880;2023-05-10T03:55:32;18.90;;;1.80;;
72369;SDS011;60343;-32.030;115.880;2023-05-10T03:58:06;17.20;;;1.80;;
72369;SDS011;60343;-32.030;115.880;2023-05-10T04:00:44;16.45;;;1.50;;
72369;SDS011;60343;-32.030;115.880;2023-05-10T04:03:21;14.77;;;1.45;;
72369;SDS011;60343;-32.030;115.880;2023-05-10T04:05:59;19.08;;;1.90;;
72369;SDS011;60343;-32.030;115.880;2023-05-10T04:08:35;13.45;;;1.50;;
72369;SDS011;60343;-32.030;115.880;2023-05-10T04:11:15;12.07;;;1.48;;
72369;SDS011;60343;-32.030;115.880;2023-05-10T04:13:50;14.68;;;1.80;;
72369;SDS011;60343;-32.030;115.880;2023-05-10T04:16:26;16.52;;;1.90;;
72369;SDS011;60343;-32.030;115.880;2023-05-10T04:19:01;14.40;;;1.48;;
72369;SDS011;60343;-32.030;115.880;2023-05-10T04:21:35;13.80;;;1.55;;
72369;SDS011;60343;-32.030;115.880;2023-05-10T04:24:10;8.80;;;1.05;;
72369;SDS011;60343;-32.030;115.880;2023-05-10T04:26:50;11.30;;;1.23;;
72369;SDS011;60343;-32.030;115.880;2023-05-10T04:29:26;10.88;;;1.98;;
72369;SDS011;60343;-32.030;115.880;2023-05-10T04:32:01;10.48;;;1.20;;
72369;SDS011;60343;-32.030;115.880;2023-05-10T04:34:36;15.02;;;1.58;;
72369;SDS011;60343;-32.030;115.880;2023-05-10T04:37:11;15.02;;;1.55;;
72369;SDS011;60343;-32.030;115.880;2023-05-10T04:39:46;8.98;;;1.27;;
72369;SDS011;60343;-32.030;115.880;2023-05-10T04:42:26;11.77;;;1.55;;
72369;SDS011;60343;-32.030;115.880;2023-05-10T04:45:00;9.43;;;1.25;;
72369;SDS011;60343;-32.030;115.880;2023-05-10T04:47:35;13.60;;;1.45;;
72369;SDS011;60343;-32.030;115.880;2023-05-10T04:50:10;10.57;;;1.30;;
72369;SDS011;60343;-32.030;115.880;2023-05-10T04:52:44;11.73;;;1.50;;
72369;SDS011;60343;-32.030;115.880;2023-05-10T04:55:19;6.72;;;1.15;;
72369;SDS011;60343;-32.030;115.880;2023-05-10T04:57:59;11.60;;;1.40;;
72369;SDS011;60343;-32.030;115.880;2023-05-10T05:00:33;14.32;;;1.08;;
72369;SDS011;60343;-32.030;115.880;2023-05-10T05:03:08;14.48;;;1.52;;
72369;SDS011;60343;-32.030;115.880;2023-05-10T05:05:42;11.27;;;1.02;;
72369;SDS011;60343;-32.030;115.880;2023-05-10T05:08:17;16.10;;;1.50;;
72369;SDS011;60343;-32.030;115.880;2023-05-10T05:10:51;10.18;;;1.30;;
72369;SDS011;60343;-32.030;115.880;2023-05-10T05:13:32;9.93;;;1.20;;
72369;SDS011;60343;-32.030;115.880;2023-05-10T05:16:06;9.02;;;1.50;;
72369;SDS011;60343;-32.030;115.880;2023-05-10T05:18:42;9.35;;;0.95;;
72369;SDS011;60343;-32.030;115.880;2023-05-10T05:21:17;7.63;;;0.88;;
72369;SDS011;60343;-32.030;115.880;2023-05-10T05:23:53;6.93;;;0.50;;
72369;SDS011;60343;-32.030;115.880;2023-05-10T05:26:27;6.78;;;0.70;;
72369;SDS011;60343;-32.030;115.880;2023-05-10T05:29:08;6.65;;;1.10;;
72369;SDS011;60343;-32.030;115.880;2023-05-10T05:31:42;7.35;;;0.98;;
72369;SDS011;60343;-32.030;115.880;2023-05-10T05:34:17;6.95;;;0.80;;
72369;SDS011;60343;-32.030;115.880;2023-05-10T05:36:52;7.28;;;0.68;;
72369;SDS011;60343;-32.030;115.880;2023-05-10T05:39:26;7.28;;;1.00;;
72369;SDS011;60343;-32.030;115.880;2023-05-10T05:42:01;3.65;;;0.60;;
72369;SDS011;60343;-32.030;115.880;2023-05-10T05:44:41;8.25;;;1.13;;
72369;SDS011;60343;-32.030;115.880;2023-05-10T05:47:16;8.98;;;0.90;;
72369;SDS011;60343;-32.030;115.880;2023-05-10T05:49:50;8.15;;;0.90;;
72369;SDS011;60343;-32.030;115.880;2023-05-10T05:52:25;9.55;;;1.20;;
72369;SDS011;60343;-32.030;115.880;2023-05-10T05:54:59;11.07;;;1.23;;
72369;SDS011;60343;-32.030;115.880;2023-05-10T05:57:33;9.60;;;1.02;;
72369;SDS011;60343;-32.030;115.880;2023-05-10T06:00:14;11.38;;;1.40;;
72369;SDS011;60343;-32.030;115.880;2023-05-10T06:02:49;10.93;;;1.35;;
72369;SDS011;60343;-32.030;115.880;2023-05-10T06:05:24;10.68;;;1.25;;
72369;SDS011;60343;-32.030;115.880;2023-05-10T06:07:59;15.18;;;1.40;;
72369;SDS011;60343;-32.030;115.880;2023-05-10T06:10:34;12.75;;;1.17;;
72369;SDS011;60343;-32.030;115.880;2023-05-10T06:13:08;13.77;;;1.45;;
72369;SDS011;60343;-32.030;115.880;2023-05-10T06:15:48;11.75;;;1.55;;
72369;SDS011;60343;-32.030;115.880;2023-05-10T06:18:23;12.00;;;1.17;;
72369;SDS011;60343;-32.030;115.880;2023-05-10T06:20:57;11.18;;;1.20;;
72369;SDS011;60343;-32.030;115.880;2023-05-10T06:23:32;10.75;;;1.00;;
72369;SDS011;60343;-32.030;115.880;2023-05-10T06:26:07;11.32;;;1.30;;
72369;SDS011;60343;-32.030;115.880;2023-05-10T06:28:41;8.10;;;0.85;;
72369;SDS011;60343;-32.030;115.880;2023-05-10T06:31:21;9.63;;;0.90;;
72369;SDS011;60343;-32.030;115.880;2023-05-10T06:33:56;13.15;;;1.98;;
72369;SDS011;60343;-32.030;115.880;2023-05-10T06:36:30;9.75;;;1.52;;
72369;SDS011;60343;-32.030;115.880;2023-05-10T06:39:05;8.30;;;0.70;;
72369;SDS011;60343;-32.030;115.880;2023-05-10T06:41:40;12.95;;;1.38;;
72369;SDS011;60343;-32.030;115.880;2023-05-10T06:44:14;10.57;;;1.02;;
72369;SDS011;60343;-32.030;115.880;2023-05-10T06:46:54;10.20;;;1.02;;
72369;SDS011;60343;-32.030;115.880;2023-05-10T06:49:29;9.25;;;1.55;;
72369;SDS011;60343;-32.030;115.880;2023-05-10T06:52:03;13.68;;;1.67;;
72369;SDS011;60343;-32.030;115.880;2023-05-10T06:54:37;11.10;;;1.60;;
72369;SDS011;60343;-32.030;115.880;2023-05-10T06:57:12;19.55;;;1.73;;
72369;SDS011;60343;-32.030;115.880;2023-05-10T06:59:46;11.75;;;1.35;;
72369;SDS011;60343;-32.030;115.880;2023-05-10T07:02:27;9.25;;;0.90;;
72369;SDS011;60343;-32.030;115.880;2023-05-10T07:05:02;10.55;;;0.95;;
72369;SDS011;60343;-32.030;115.880;2023-05-10T07:07:37;7.63;;;0.80;;
72369;SDS011;60343;-32.030;115.880;2023-05-10T07:10:12;9.75;;;0.88;;
72369;SDS011;60343;-32.030;115.880;2023-05-10T07:12:46;9.80;;;1.27;;
72369;SDS011;60343;-32.030;115.880;2023-05-10T07:15:21;9.23;;;1.33;;
72369;SDS011;60343;-32.030;115.880;2023-05-10T07:18:01;7.97;;;0.80;;
72369;SDS011;60343;-32.030;115.880;2023-05-10T07:20:36;9.00;;;0.80;;
72369;SDS011;60343;-32.030;115.880;2023-05-10T07:23:11;6.45;;;1.00;;
72369;SDS011;60343;-32.030;115.880;2023-05-10T07:25:45;9.48;;;0.85;;
72369;SDS011;60343;-32.030;115.880;2023-05-10T07:28:20;9.75;;;0.85;;
72369;SDS011;60343;-32.030;115.880;2023-05-10T07:30:55;9.13;;;0.98;;
72369;SDS011;60343;-32.030;115.880;2023-05-10T07:33:35;6.93;;;0.68;;
72369;SDS011;60343;-32.030;115.880;2023-05-10T07:36:09;10.70;;;0.70;;
72369;SDS011;60343;-32.030;115.880;2023-05-10T07:38:44;7.57;;;1.10;;
72369;SDS011;60343;-32.030;115.880;2023-05-10T07:41:19;7.32;;;1.00;;
72369;SDS011;60343;-32.030;115.880;2023-05-10T07:43:53;5.72;;;0.80;;
72369;SDS011;60343;-32.030;115.880;2023-05-10T07:46:28;3.97;;;0.63;;
72369;SDS011;60343;-32.030;115.880;2023-05-10T07:49:08;6.13;;;0.60;;
72369;SDS011;60343;-32.030;115.880;2023-05-10T07:51:43;5.53;;;0.85;;
72369;SDS011;60343;-32.030;115.880;2023-05-10T07:54:17;5.05;;;0.60;;
72369;SDS011;60343;-32.030;115.880;2023-05-10T07:56:52;5.28;;;0.75;;
72369;SDS011;60343;-32.030;115.880;2023-05-10T07:59:27;11.35;;;0.90;;
72369;SDS011;60343;-32.030;115.880;2023-05-10T08:02:02;4.35;;;0.40;;
72369;SDS011;60343;-32.030;115.880;2023-05-10T08:04:42;5.45;;;0.98;;
72369;SDS011;60343;-32.030;115.880;2023-05-10T08:07:16;6.15;;;1.02;;
72369;SDS011;60343;-32.030;115.880;2023-05-10T08:09:51;6.72;;;0.90;;
72369;SDS011;60343;-32.030;115.880;2023-05-10T08:12:26;9.80;;;1.13;;
72369;SDS011;60343;-32.030;115.880;2023-05-10T08:15:01;11.48;;;1.42;;
72369;SDS011;60343;-32.030;115.880;2023-05-10T08:17:35;8.45;;;1.08;;
72369;SDS011;60343;-32.030;115.880;2023-05-10T08:20:16;8.68;;;1.02;;
72369;SDS011;60343;-32.030;115.880;2023-05-10T08:22:50;7.90;;;1.15;;
72369;SDS011;60343;-32.030;115.880;2023-05-10T08:25:25;6.00;;;1.20;;
72369;SDS011;60343;-32.030;115.880;2023-05-10T08:27:59;10.18;;;1.08;;
72369;SDS011;60343;-32.030;115.880;2023-05-10T08:30:34;7.85;;;0.93;;
72369;SDS011;60343;-32.030;115.880;2023-05-10T08:33:08;8.60;;;0.70;;
72369;SDS011;60343;-32.030;115.880;2023-05-10T08:35:48;9.05;;;1.17;;
72369;SDS011;60343;-32.030;115.880;2023-05-10T08:38:23;12.00;;;1.17;;
72369;SDS011;60343;-32.030;115.880;2023-05-10T08:40:57;5.78;;;0.60;;
72369;SDS011;60343;-32.030;115.880;2023-05-10T08:43:34;9.00;;;1.27;;
72369;SDS011;60343;-32.030;115.880;2023-05-10T08:46:12;5.60;;;1.02;;
72369;SDS011;60343;-32.030;115.880;2023-05-10T08:48:50;4.97;;;0.65;;
72369;SDS011;60343;-32.030;115.880;2023-05-10T08:51:32;9.60;;;0.98;;
72369;SDS011;60343;-32.030;115.880;2023-05-10T08:54:10;10.05;;;0.90;;
72369;SDS011;60343;-32.030;115.880;2023-05-10T08:56:45;6.00;;;0.95;;
72369;SDS011;60343;-32.030;115.880;2023-05-10T08:59:19;7.90;;;0.70;;
72369;SDS011;60343;-32.030;115.880;2023-05-10T09:01:54;8.85;;;0.82;;
72369;SDS011;60343;-32.030;115.880;2023-05-10T09:04:31;8.82;;;0.90;;
72369;SDS011;60343;-32.030;115.880;2023-05-10T09:07:11;8.35;;;0.85;;
72369;SDS011;60343;-32.030;115.880;2023-05-10T09:09:46;9.93;;;0.90;;
72369;SDS011;60343;-32.030;115.880;2023-05-10T09:12:21;7.32;;;0.68;;
72369;SDS011;60343;-32.030;115.880;2023-05-10T09:14:56;5.60;;;0.77;;
72369;SDS011;60343;-32.030;115.880;2023-05-10T09:17:32;9.35;;;0.90;;
72369;SDS011;60343;-32.030;115.880;2023-05-10T09:20:08;4.68;;;0.90;;
72369;SDS011;60343;-32.030;115.880;2023-05-10T09:22:49;6.38;;;0.50;;
72369;SDS011;60343;-32.030;115.880;2023-05-10T09:25:23;7.10;;;0.80;;
72369;SDS011;60343;-32.030;115.880;2023-05-10T09:27:59;8.15;;;0.65;;
72369;SDS011;60343;-32.030;115.880;2023-05-10T09:30:34;5.70;;;0.75;;
72369;SDS011;60343;-32.030;115.880;2023-05-10T09:33:09;8.30;;;0.90;;
72369;SDS011;60343;-32.030;115.880;2023-05-10T09:35:43;16.88;;;2.38;;
72369;SDS011;60343;-32.030;115.880;2023-05-10T09:38:23;8.05;;;1.30;;
72369;SDS011;60343;-32.030;115.880;2023-05-10T09:40:57;5.13;;;0.73;;
72369;SDS011;60343;-32.030;115.880;2023-05-10T09:43:37;7.72;;;0.90;;
72369;SDS011;60343;-32.030;115.880;2023-05-10T09:46:12;5.90;;;0.65;;
72369;SDS011;60343;-32.030;115.880;2023-05-10T09:48:47;6.30;;;0.80;;
72369;SDS011;60343;-32.030;115.880;2023-05-10T09:51:22;4.72;;;0.70;;
72369;SDS011;60343;-32.030;115.880;2023-05-10T09:56:53;5.45;;;0.73;;
72369;SDS011;60343;-32.030;115.880;2023-05-10T09:59:28;6.53;;;1.10;;
72369;SDS011;60343;-32.030;115.880;2023-05-10T10:02:03;5.38;;;1.00;;
72369;SDS011;60343;-32.030;115.880;2023-05-10T10:04:39;8.68;;;0.80;;
72369;SDS011;60343;-32.030;115.880;2023-05-10T10:07:17;5.82;;;0.70;;
72369;SDS011;60343;-32.030;115.880;2023-05-10T10:10:18;6.30;;;0.52;;
72369;SDS011;60343;-32.030;115.880;2023-05-10T10:12:55;6.38;;;0.80;;
72369;SDS011;60343;-32.030;115.880;2023-05-10T10:15:35;6.47;;;0.60;;
72369;SDS011;60343;-32.030;115.880;2023-05-10T10:18:11;10.07;;;0.80;;
72369;SDS011;60343;-32.030;115.880;2023-05-10T10:20:49;8.02;;;0.70;;
72369;SDS011;60343;-32.030;115.880;2023-05-10T10:23:25;10.52;;;1.02;;
72369;SDS011;60343;-32.030;115.880;2023-05-10T10:26:05;7.32;;;0.60;;
72369;SDS011;60343;-32.030;115.880;2023-05-10T10:28:44;9.05;;;0.80;;
72369;SDS011;60343;-32.030;115.880;2023-05-10T10:31:32;7.65;;;0.70;;
72369;SDS011;60343;-32.030;115.880;2023-05-10T10:34:17;5.20;;;0.70;;
72369;SDS011;60343;-32.030;115.880;2023-05-10T10:37:03;10.00;;;0.80;;
72369;SDS011;60343;-32.030;115.880;2023-05-10T10:39:38;7.53;;;0.98;;
72369;SDS011;60343;-32.030;115.880;2023-05-10T10:42:19;11.15;;;1.02;;
72369;SDS011;60343;-32.030;115.880;2023-05-10T10:45:21;10.13;;;0.82;;
72369;SDS011;60343;-32.030;115.880;2023-05-10T10:50:57;4.80;;;0.88;;
72369;SDS011;60343;-32.030;115.880;2023-05-10T10:53:33;11.07;;;0.93;;
72369;SDS011;60343;-32.030;115.880;2023-05-10T10:56:07;6.28;;;1.00;;
72369;SDS011;60343;-32.030;115.880;2023-05-10T10:58:56;10.40;;;1.17;;
72369;SDS011;60343;-32.030;115.880;2023-05-10T11:01:33;7.55;;;1.10;;
72369;SDS011;60343;-32.030;115.880;2023-05-10T11:04:17;10.48;;;0.93;;
72369;SDS011;60343;-32.030;115.880;2023-05-10T11:06:52;10.38;;;0.90;;
72369;SDS011;60343;-32.030;115.880;2023-05-10T11:09:50;6.53;;;0.65;;
72369;SDS011;60343;-32.030;115.880;2023-05-10T11:12:26;5.72;;;0.65;;
72369;SDS011;60343;-32.030;115.880;2023-05-10T11:15:08;11.55;;;1.00;;
72369;SDS011;60343;-32.030;115.880;2023-05-10T11:17:43;9.93;;;0.70;;
72369;SDS011;60343;-32.030;115.880;2023-05-10T11:20:18;4.10;;;0.47;;
72369;SDS011;60343;-32.030;115.880;2023-05-10T11:23:10;9.27;;;0.70;;
72369;SDS011;60343;-32.030;115.880;2023-05-10T11:25:47;6.72;;;0.60;;
72369;SDS011;60343;-32.030;115.880;2023-05-10T11:28:22;6.68;;;0.75;;
72369;SDS011;60343;-32.030;115.880;2023-05-10T11:31:04;4.60;;;0.60;;
72369;SDS011;60343;-32.030;115.880;2023-05-10T11:33:43;9.38;;;0.60;;
72369;SDS011;60343;-32.030;115.880;2023-05-10T11:36:18;7.68;;;0.70;;
72369;SDS011;60343;-32.030;115.880;2023-05-10T11:38:53;5.95;;;0.75;;
72369;SDS011;60343;-32.030;115.880;2023-05-10T11:41:30;7.38;;;0.80;;
72369;SDS011;60343;-32.030;115.880;2023-05-10T11:44:05;4.57;;;0.50;;
72369;SDS011;60343;-32.030;115.880;2023-05-10T11:46:47;5.22;;;0.85;;
72369;SDS011;60343;-32.030;115.880;2023-05-10T11:49:23;5.82;;;0.45;;
72369;SDS011;60343;-32.030;115.880;2023-05-10T11:52:05;6.90;;;0.50;;
72369;SDS011;60343;-32.030;115.880;2023-05-10T11:54:45;5.95;;;0.68;;
72369;SDS011;60343;-32.030;115.880;2023-05-10T11:57:26;4.05;;;0.50;;
72369;SDS011;60343;-32.030;115.880;2023-05-10T12:00:00;7.13;;;0.73;;
72369;SDS011;60343;-32.030;115.880;2023-05-10T12:02:41;7.32;;;0.70;;
72369;SDS011;60343;-32.030;115.880;2023-05-10T12:05:16;5.97;;;0.65;;
72369;SDS011;60343;-32.030;115.880;2023-05-10T12:07:52;6.22;;;0.77;;
72369;SDS011;60343;-32.030;115.880;2023-05-10T12:10:43;4.70;;;0.70;;
72369;SDS011;60343;-32.030;115.880;2023-05-10T12:13:18;4.95;;;0.52;;
72369;SDS011;60343;-32.030;115.880;2023-05-10T12:15:53;5.40;;;0.57;;
72369;SDS011;60343;-32.030;115.880;2023-05-10T12:18:36;4.45;;;0.60;;
72369;SDS011;60343;-32.030;115.880;2023-05-10T12:21:14;5.72;;;0.98;;
72369;SDS011;60343;-32.030;115.880;2023-05-10T12:23:50;5.05;;;0.73;;
72369;SDS011;60343;-32.030;115.880;2023-05-10T12:26:25;4.38;;;0.50;;
72369;SDS011;60343;-32.030;115.880;2023-05-10T12:29:13;6.80;;;0.65;;
72369;SDS011;60343;-32.030;115.880;2023-05-10T12:31:55;9.38;;;0.80;;
72369;SDS011;60343;-32.030;115.880;2023-05-10T12:34:36;13.27;;;1.58;;
72369;SDS011;60343;-32.030;115.880;2023-05-10T12:37:11;9.98;;;1.02;;
72369;SDS011;60343;-32.030;115.880;2023-05-10T12:39:46;7.82;;;1.00;;
72369;SDS011;60343;-32.030;115.880;2023-05-10T12:42:21;10.60;;;0.95;;
72369;SDS011;60343;-32.030;115.880;2023-05-10T12:44:56;7.65;;;0.85;;
72369;SDS011;60343;-32.030;115.880;2023-05-10T12:47:31;10.95;;;1.15;;
72369;SDS011;60343;-32.030;115.880;2023-05-10T12:50:11;7.68;;;0.73;;
72369;SDS011;60343;-32.030;115.880;2023-05-10T12:52:46;11.40;;;1.17;;
72369;SDS011;60343;-32.030;115.880;2023-05-10T12:55:21;9.63;;;0.98;;
72369;SDS011;60343;-32.030;115.880;2023-05-10T12:57:55;13.15;;;1.10;;
72369;SDS011;60343;-32.030;115.880;2023-05-10T13:00:30;7.82;;;1.10;;
72369;SDS011;60343;-32.030;115.880;2023-05-10T13:03:04;11.10;;;1.00;;
72369;SDS011;60343;-32.030;115.880;2023-05-10T13:05:45;10.27;;;1.05;;
72369;SDS011;60343;-32.030;115.880;2023-05-10T13:08:19;6.28;;;0.60;;
72369;SDS011;60343;-32.030;115.880;2023-05-10T13:10:59;5.65;;;0.90;;
72369;SDS011;60343;-32.030;115.880;2023-05-10T13:13:34;7.30;;;0.77;;
72369;SDS011;60343;-32.030;115.880;2023-05-10T13:16:08;6.68;;;0.65;;
72369;SDS011;60343;-32.030;115.880;2023-05-10T13:18:42;6.07;;;0.70;;
72369;SDS011;60343;-32.030;115.880;2023-05-10T13:21:23;7.97;;;0.98;;
72369;SDS011;60343;-32.030;115.880;2023-05-10T13:23:57;6.53;;;0.60;;
72369;SDS011;60343;-32.030;115.880;2023-05-10T13:26:32;5.65;;;1.00;;
72369;SDS011;60343;-32.030;115.880;2023-05-10T13:29:07;10.68;;;1.02;;
72369;SDS011;60343;-32.030;115.880;2023-05-10T13:31:43;9.13;;;0.73;;
72369;SDS011;60343;-32.030;115.880;2023-05-10T13:34:18;7.03;;;0.90;;
72369;SDS011;60343;-32.030;115.880;2023-05-10T13:36:58;9.52;;;0.90;;
72369;SDS011;60343;-32.030;115.880;2023-05-10T13:39:33;11.82;;;1.17;;
72369;SDS011;60343;-32.030;115.880;2023-05-10T13:42:07;7.55;;;1.00;;
72369;SDS011;60343;-32.030;115.880;2023-05-10T13:44:42;7.25;;;1.13;;
72369;SDS011;60343;-32.030;115.880;2023-05-10T13:47:17;9.98;;;1.27;;
72369;SDS011;60343;-32.030;115.880;2023-05-10T13:49:51;6.32;;;0.80;;
72369;SDS011;60343;-32.030;115.880;2023-05-10T13:52:32;7.32;;;0.80;;
72369;SDS011;60343;-32.030;115.880;2023-05-10T13:55:06;7.15;;;0.88;;
72369;SDS011;60343;-32.030;115.880;2023-05-10T13:57:41;7.40;;;0.88;;
72369;SDS011;60343;-32.030;115.880;2023-05-10T14:00:16;4.10;;;0.55;;
72369;SDS011;60343;-32.030;115.880;2023-05-10T14:02:51;6.35;;;0.70;;
72369;SDS011;60343;-32.030;115.880;2023-05-10T14:05:25;5.13;;;0.57;;
72369;SDS011;60343;-32.030;115.880;2023-05-10T14:08:05;8.98;;;1.20;;
72369;SDS011;60343;-32.030;115.880;2023-05-10T14:10:40;8.25;;;0.88;;
72369;SDS011;60343;-32.030;115.880;2023-05-10T14:13:15;2.63;;;0.57;;
72369;SDS011;60343;-32.030;115.880;2023-05-10T14:15:49;3.78;;;0.60;;
72369;SDS011;60343;-32.030;115.880;2023-05-10T14:18:26;5.60;;;0.60;;
72369;SDS011;60343;-32.030;115.880;2023-05-10T14:21:02;5.88;;;0.93;;
72369;SDS011;60343;-32.030;115.880;2023-05-10T14:23:42;6.78;;;0.80;;
72369;SDS011;60343;-32.030;115.880;2023-05-10T14:26:17;7.80;;;1.02;;
72369;SDS011;60343;-32.030;115.880;2023-05-10T14:28:52;2.72;;;0.50;;
72369;SDS011;60343;-32.030;115.880;2023-05-10T14:31:26;5.63;;;0.80;;
72369;SDS011;60343;-32.030;115.880;2023-05-10T14:34:02;5.28;;;0.82;;
72369;SDS011;60343;-32.030;115.880;2023-05-10T14:36:36;5.38;;;0.63;;
72369;SDS011;60343;-32.030;115.880;2023-05-10T14:39:16;7.32;;;1.00;;
72369;SDS011;60343;-32.030;115.880;2023-05-10T14:41:51;5.68;;;0.77;;
72369;SDS011;60343;-32.030;115.880;2023-05-10T14:44:26;12.32;;;0.85;;
72369;SDS011;60343;-32.030;115.880;2023-05-10T14:47:00;9.15;;;1.02;;
72369;SDS011;60343;-32.030;115.880;2023-05-10T14:49:34;13.40;;;0.90;;
72369;SDS011;60343;-32.030;115.880;2023-05-10T14:52:09;7.18;;;1.02;;
72369;SDS011;60343;-32.030;115.880;2023-05-10T14:54:49;6.28;;;0.60;;
72369;SDS011;60343;-32.030;115.880;2023-05-10T14:57:25;3.92;;;0.50;;
72369;SDS011;60343;-32.030;115.880;2023-05-10T15:00:00;4.88;;;0.65;;
72369;SDS011;60343;-32.030;115.880;2023-05-10T15:02:34;7.90;;;1.10;;
72369;SDS011;60343;-32.030;115.880;2023-05-10T15:05:09;8.52;;;1.23;;
72369;SDS011;60343;-32.030;115.880;2023-05-10T15:07:43;7.32;;;0.65;;
72369;SDS011;60343;-32.030;115.880;2023-05-10T15:10:23;6.28;;;0.80;;